Flight Track Log - Related Links

Times and Time Zones

All times are in EDT time to prevent confusion due to time zone crossing. See the SWA2236 flight status page for this flight to view local times or setup timezone preferences in your user account.

Time Position Orientation Groundspeed Altitude Reporting Facility
EDT Latitude Longitude Course Direction KTS MPH feet Rate Location/Type
Tue 07:22:10 AM 32.8333 -96.8333 132° Southeast 129 148 1,700  Level Dallas / Fort Worth TRACON
Tue 07:23:34 AM 32.7833 -96.7667 132° Southeast 198 228 6,000 2,503 Climbing Dallas / Fort Worth TRACON
Tue 07:24:41 AM 32.7167 -96.7500 168° South 274 315 8,000 952 Climbing Dallas / Fort Worth TRACON
Tue 07:25:40 AM 32.6500 -96.8000 212° Southwest 279 321 8,000 1,492 Level Dallas / Fort Worth TRACON
Tue 07:27:38 AM 32.6844 -96.9889 282° West 313 360 12,400 2,528 Climbing Fort Worth Center
Tue 07:28:38 AM 32.7161 -97.1147 287° West 351 404 15,500 2,750 Climbing Fort Worth Center
Tue 07:29:38 AM 32.7433 -97.2306 286° West 366 421 17,900 2,500 Climbing Fort Worth Center
Tue 07:30:38 AM 32.7750 -97.3592 286° West 391 450 20,500 2,231 Climbing Fort Worth Center
Tue 07:31:39 AM 32.8061 -97.4875 286° West 396 456 22,400 1,800 Climbing Fort Worth Center
Tue 07:32:38 AM 32.8353 -97.6111 286° West 409 471 24,100 1,664 Climbing Fort Worth Center
Tue 07:33:38 AM 32.8664 -97.7572 284° West 430 495 25,700 1,700 Climbing Fort Worth Center
Tue 07:34:38 AM 32.8678 -97.9056 271° West 448 516 27,500 1,750 Climbing Fort Worth Center
Tue 07:35:38 AM 32.8650 -98.0539 269° West 453 521 29,200 1,800 Climbing Fort Worth Center
Tue 07:36:38 AM 32.8622 -98.2097 269° West 465 535 31,100 2,050 Climbing Fort Worth Center
Tue 07:37:38 AM 32.8800 -98.3533 278° West 460 529 33,300 2,000 Climbing Fort Worth Center
Tue 07:38:38 AM 32.9331 -98.4925 294° West 431 496 35,100 1,650 Climbing Fort Worth Center
Tue 07:39:38 AM 32.9861 -98.6269 295° West 432 497 36,600 1,350 Climbing Fort Worth Center
Tue 07:40:38 AM 33.0369 -98.7589 295° West 439 505 37,800 950 Climbing Fort Worth Center
Tue 07:41:38 AM 33.0897 -98.8936 295° West 439 505 38,500 800 Climbing Fort Worth Center
Tue 07:42:38 AM 33.1403 -99.0286 294° West 445 512 39,400 750 Climbing Fort Worth Center
Tue 07:43:38 AM 33.1947 -99.1661 295° West 445 512 40,000 300 Climbing Fort Worth Center
Tue 07:44:38 AM 33.2428 -99.3036 293° West 450 518 40,000  Level Fort Worth Center
Tue 07:45:38 AM 33.2931 -99.4314 295° West 456 525 40,000  Level Fort Worth Center
Tue 07:46:38 AM 33.3428 -99.5692 293° West 456 525 40,000  Level Fort Worth Center
Tue 07:47:38 AM 33.3925 -99.7075 293° West 461 531 40,000  Level Fort Worth Center
Tue 07:48:38 AM 33.4464 -99.8481 295° West 461 531 40,000  Level Fort Worth Center
Tue 07:49:38 AM 33.4978 -99.9892 294° West 461 531 40,000  Level Fort Worth Center
Tue 07:50:38 AM 33.5492 -100.1278 294° West 461 531 40,000  Level Fort Worth Center
Tue 07:51:38 AM 33.6003 -100.2689 294° West 461 531 40,000  Level Fort Worth Center
Tue 07:52:38 AM 33.6492 -100.4103 293° West 461 531 40,000  Level Fort Worth Center
Tue 07:53:38 AM 33.7000 -100.5467 294° West 461 531 40,000  Level Fort Worth Center
Tue 07:54:38 AM 33.7464 -100.6858 292° West 461 531 40,000  Level Fort Worth Center
Tue 07:55:38 AM 33.7972 -100.8228 294° West 453 521 40,000  Level Fort Worth Center
Tue 07:56:38 AM 33.8456 -100.9572 293° West 448 516 40,000  Level Fort Worth Center
Tue 07:57:38 AM 33.8997 -101.1044 294° West 443 510 40,000  Level Fort Worth Center
Tue 07:58:38 AM 33.9478 -101.2442 293° West 443 510 40,000  Level Fort Worth Center
Tue 07:59:38 AM 33.9919 -101.3689 293° West 443 510 40,000  Level Fort Worth Center
Tue 08:00:38 AM 34.0456 -101.5167 294° West 443 510 40,000  Level Fort Worth Center
Tue 08:01:38 AM 34.0892 -101.6417 293° West 437 503 40,000  Level Fort Worth Center
Tue 08:02:38 AM 34.1403 -101.7947 292° West 443 510 40,000  Level Fort Worth Center
Tue 08:04:12 AM 34.2044 -101.9850 292° West 443 510 40,000  Level Albuquerque Center
Tue 08:05:13 AM 34.2517 -102.1203 293° West 439 505 40,000  Level Albuquerque Center
Tue 08:06:13 AM 34.2986 -102.2575 293° West 439 505 40,000  Level Albuquerque Center
Tue 08:07:13 AM 34.3444 -102.3922 292° West 436 502 40,000  Level Albuquerque Center
Tue 08:08:14 AM 34.3911 -102.5286 293° West 435 501 40,000  Level Albuquerque Center
Tue 08:09:14 AM 34.4453 -102.6906 292° West 433 498 40,000  Level Albuquerque Center
Tue 08:10:15 AM 34.4908 -102.8258 292° West 433 498 40,000  Level Albuquerque Center
Tue 08:11:16 AM 34.5136 -102.9594 282° West 440 506 40,000  Level Albuquerque Center
Tue 08:12:16 AM 34.5367 -103.1056 281° West 438 504 40,000  Level Albuquerque Center
Tue 08:13:16 AM 34.5594 -103.2544 281° West 442 509 40,000  Level Albuquerque Center
Tue 08:14:17 AM 34.5811 -103.4050 280° West 446 513 40,000  Level Albuquerque Center
Tue 08:15:17 AM 34.6031 -103.5511 280° West 441 507 40,000 -248 Level Albuquerque Center
Tue 08:16:18 AM 34.6244 -103.6931 280° West 429 494 39,500 -744 Descending Albuquerque Center
Tue 08:17:18 AM 34.6447 -103.8317 280° West 416 479 38,500 -992 Descending Albuquerque Center
Tue 08:18:19 AM 34.6639 -103.9639 280° West 401 461 37,500 -942 Descending Albuquerque Center
Tue 08:19:19 AM 34.6836 -104.1008 280° West 403 464 36,600 -744 Descending Albuquerque Center
Tue 08:20:20 AM 34.7031 -104.2386 280° West 407 468 36,000 -295 Descending Albuquerque Center
Tue 08:21:21 AM 34.7231 -104.3747 280° West 405 466 36,000  Level Albuquerque Center
Tue 08:22:21 AM 34.7414 -104.5094 279° West 401 461 36,000  Level Albuquerque Center
Tue 08:23:22 AM 34.7608 -104.6447 280° West 401 461 36,000 -397 Level Albuquerque Center
Tue 08:24:22 AM 34.7797 -104.7792 280° West 399 459 35,200 -992 Descending Albuquerque Center
Tue 08:25:23 AM 34.7983 -104.9097 280° West 392 451 34,000 -595 Descending Albuquerque Center
Tue 08:26:23 AM 34.8169 -105.0417 280° West 391 450 34,000 -992 Level Albuquerque Center
Tue 08:27:24 AM 34.8356 -105.1792 279° West 403 464 32,000 -2,876 Descending Albuquerque Center
Tue 08:28:24 AM 34.8553 -105.3236 279° West 421 484 28,200 -3,322 Descending Albuquerque Center
Tue 08:29:25 AM 34.8753 -105.4725 279° West 436 502 25,300 -2,557 Descending Albuquerque Center
Tue 08:30:26 AM 34.8933 -105.6139 279° West 424 488 23,000 -2,182 Descending Albuquerque Center
Tue 08:31:26 AM 34.9122 -105.7478 280° West 404 465 20,900 -1,922 Descending Albuquerque Center
Tue 08:32:09 AM 34.9217 -105.8358 277° West 380 437 19,700 -1,748 Descending Albuquerque Center
Tue 08:33:09 AM 34.9353 -105.9592 278° West 363 418 17,900 -1,537 Descending Albuquerque Center
Tue 08:34:10 AM 34.9519 -106.0742 280° West 347 399 16,600 -1,488 Descending Albuquerque Center
Tue 08:35:10 AM 34.9483 -106.1864 268° West 332 382 14,900 -1,835 Descending Albuquerque Center
Tue 08:36:11 AM 34.9358 -106.2961 262° West 324 373 12,900 -2,410 Descending Albuquerque Center
Tue 08:37:12 AM 34.9261 -106.4206 265° West 348 400 10,000 -1,438 Descending Albuquerque Center
Tue 08:38:12 AM 34.9194 -106.5283 266° West 299 344 10,000 -567 Level Albuquerque Center
Tue 08:39:19 AM 34.9150 -106.6256 267° West 256 295 8,800 -756 Descending Albuquerque Center
Tue 08:40:19 AM 34.9292 -106.6942 284° West 188 216 8,400 -939 Descending Albuquerque Center
Tue 08:41:14 AM 34.9675 -106.7053 347° North 158 182 7,000 -1,190 Descending Albuquerque Center
Tue 08:42:15 AM 34.9944 -106.6644 51° Northeast 150 173 6,100 -734 Descending Albuquerque Center
Tue 08:43:33 AM 35.0322 -106.6175 45° Northeast 159 183 5,300 -615 Descending Albuquerque Center
Tue 08:45:00 AM 35.0333 -106.6000 90° East  Level FlightAware Approximate

Login

Don't have an account? Register now (free) for customized features, flight alerts, and more!